Time;durP1;ratioP1;P1;durP2;ratioP2;P2;SDS_P1;SDS_P2;PMS_P1;PMS_P2;Temp;Humidity;BMP_temperature;BMP_pressure;BME280_temperature;BME280_humidity;BME280_pressure;Samples;Min_cycle;Max_cycle;Signal;HPM_P1;HPM_P2
2022/06/16 00:01:11;;;;;;;0.93;0.55;;;;;;;-145.06;0.00;60892.56;5896400;23;20069;-93
2022/06/16 00:04:17;;;;;;;2.25;0.40;;;;;;;-145.06;0.00;60892.56;5885540;23;20006;-93
2022/06/16 00:06:59;;;;;;;1.80;0.30;;;;;;;-145.06;0.00;60892.56;5886688;23;20003;-92
2022/06/16 00:20:19;;;;;;;;;;;;;;;;;;;;;
2022/06/16 00:23:04;;;;;;;1.40;0.43;;;;;;;-145.06;0.00;60892.56;5953280;23;20024;-94
2022/06/16 00:25:55;;;;;;;1.33;0.75;;;;;;;-145.06;0.00;60892.56;5913225;23;20006;-95
2022/06/16 00:28:41;;;;;;;0.63;0.50;;;;;;;19.82;0.00;60892.56;5913129;23;20006;-94
2022/06/16 00:31:22;;;;;;;1.10;0.70;;;;;;;-145.06;0.00;60892.56;5914056;23;20006;-95
2022/06/16 00:34:48;;;;;;;1.25;0.50;;;;;;;-145.06;0.00;60892.56;5913911;23;20009;-95
2022/06/16 00:38:19;;;;;;;0.75;0.40;;;;;;;-145.06;0.00;60892.56;5913894;23;20006;-94
2022/06/16 00:45:13;;;;;;;;;;;;;;;;;;;;;
2022/06/16 00:48:46;;;;;;;;;;;;;;;;;;;;;
2022/06/16 00:52:10;;;;;;;2.63;0.60;;;;;;;-145.06;0.00;60892.56;5924442;23;20005;-95
2022/06/16 00:55:15;;;;;;;1.42;0.45;;;;;;;-145.06;0.00;60892.56;5914069;23;20085;-95
2022/06/16 00:58:36;;;;;;;;;;;;;;;;;;;;;
2022/06/16 01:05:05;;;;;;;;;;;;;;;;;;;;;
2022/06/16 01:15:04;;;;;;;1.08;0.40;;;;;;;-145.06;0.00;60892.56;5923979;23;20084;-95
2022/06/16 01:18:30;;;;;;;0.73;0.40;;;;;;;-145.06;0.00;60892.56;5913572;23;20073;-96
2022/06/16 01:21:24;;;;;;;1.20;0.70;;;;;;;-145.06;0.00;60892.56;5864560;23;20006;-95
2022/06/16 01:35:44;;;;;;;;;;;;;;;;;;;;;
2022/06/16 01:38:53;;;;;;;1.13;0.50;;;;;;;-145.06;0.00;60892.56;5952825;23;20339;-92
2022/06/16 01:42:08;;;;;;;1.00;0.80;;;;;;;-145.06;0.00;60892.56;5941845;23;20424;-92
2022/06/16 01:45:24;;;;;;;1.45;0.57;;;;;;;-145.06;0.00;60892.56;5941873;23;20056;-93
2022/06/16 01:52:12;;;;;;;1.23;0.57;;;;;;;-145.06;0.00;60892.56;5949375;23;20001;-92
2022/06/16 01:55:32;;;;;;;1.63;0.60;;;;;;;-145.06;0.00;60892.56;5941602;23;20005;-92
2022/06/16 01:58:38;;;;;;;;;;;;;;;-145.06;0.00;60892.56;5938262;23;20006;-92
2022/06/16 02:02:21;;;;;;;0.50;0.35;;;;;;;-145.06;0.00;60892.56;5941417;23;19908;-93
2022/06/16 02:05:24;;;;;;;1.00;0.50;;;;;;;-145.06;0.00;60892.56;5942027;23;20009;-92
2022/06/16 02:08:26;;;;;;;1.20;0.50;;;;;;;-145.06;0.00;60892.56;5941244;23;20010;-93
2022/06/16 02:18:18;;;;;;;0.73;0.55;;;;;;;-145.06;0.00;60892.56;5948220;23;20009;-93
2022/06/16 02:21:09;;;;;;;0.98;0.60;;;;;;;18.39;0.00;60892.56;5941496;23;20002;-94
2022/06/16 02:23:55;;;;;;;1.63;0.52;;;;;;;18.37;0.00;60892.56;5941282;23;20005;-93
2022/06/16 02:27:10;;;;;;;1.20;0.52;;;;;;;18.33;0.00;60892.56;5941227;23;20313;-92
2022/06/16 02:30:24;;;;;;;1.33;0.60;;;;;;;18.30;0.00;60892.56;5941496;23;20033;-92
2022/06/16 02:34:05;;;;;;;0.90;0.50;;;;;;;18.26;0.00;60892.56;5942010;23;20001;-93
2022/06/16 02:36:56;;;;;;;0.80;0.40;;;;;;;-145.06;0.00;60892.56;5915120;23;20076;-92
2022/06/16 02:39:59;;;;;;;1.00;0.52;;;;;;;187.52;0.00;60892.56;5941554;23;20498;-91
2022/06/16 02:43:01;;;;;;;1.17;0.52;;;;;;;-145.06;0.00;60892.56;5941927;23;20005;-91
2022/06/16 02:46:02;;;;;;;0.63;0.50;;;;;;;-145.06;0.00;60892.56;5941786;23;20080;-92
2022/06/16 02:49:23;;;;;;;0.90;0.60;;;;;;;-145.06;0.00;60892.56;5941865;23;20001;-92
2022/06/16 02:52:14;;;;;;;1.25;0.50;;;;;;;-145.06;0.00;60892.56;5942259;23;20006;-92
2022/06/16 02:55:32;;;;;;;1.40;0.40;;;;;;;-145.06;0.00;60892.56;5941740;23;20005;-92
2022/06/16 02:58:26;;;;;;;0.50;0.50;;;;;;;-145.06;0.00;60892.56;5941878;23;20317;-92
2022/06/16 03:01:17;;;;;;;;;;;;;;;;;;;;;
2022/06/16 03:04:29;;;;;;;0.90;0.63;;;;;;;-145.06;0.00;60892.56;5953704;23;20010;-91
2022/06/16 03:07:25;;;;;;;1.13;0.65;;;;;;;-145.06;0.00;60892.56;5943179;23;20297;-92
2022/06/16 03:39:00;;;;;;;1.70;0.65;;;;;;;-145.06;0.00;60892.56;5926775;23;20072;-92
2022/06/16 03:42:30;;;;;;;;;;;;;;;;;;;;;
2022/06/16 03:45:41;;;;;;;0.98;0.60;;;;;;;-145.06;0.00;60892.56;5953580;23;20009;-91
2022/06/16 03:48:49;;;;;;;1.00;0.50;;;;;;;-145.06;0.00;60892.56;5942735;23;20028;-92
2022/06/16 03:55:27;;;;;;;0.70;0.50;;;;;;;-145.06;0.00;60892.56;5947478;23;20369;-92
2022/06/16 03:58:33;;;;;;;1.25;0.70;;;;;;;-145.06;0.00;60892.56;5943154;23;20495;-92
2022/06/16 04:01:19;;;;;;;1.10;0.60;;;;;;;-145.06;0.00;60892.56;5942728;23;19997;-92
2022/06/16 04:07:51;;;;;;;0.82;0.57;;;;;;;-145.06;0.00;60892.56;5950595;23;20013;-92
2022/06/16 04:10:31;;;;;;;0.82;0.50;;;;;;;-145.06;0.00;60892.56;5942211;23;20313;-90
2022/06/16 04:13:10;;;;;;;0.98;0.50;;;;;;;-145.06;0.00;60892.56;5942777;23;20009;-91
2022/06/16 04:15:54;;;;;;;1.20;0.77;;;;;;;-145.06;0.00;60892.56;5942118;23;20642;-92
2022/06/16 04:19:04;;;;;;;1.15;0.50;;;;;;;-145.06;0.00;60892.56;5942263;23;20533;-93
2022/06/16 04:21:48;;;;;;;2.78;0.70;;;;;;;-145.06;0.00;60892.56;5941853;23;20002;-92
2022/06/16 04:24:40;;;;;;;1.33;0.70;;;;;;;-145.06;0.00;60892.56;5941810;23;20005;-92
2022/06/16 04:27:25;;;;;;;0.70;0.52;;;;;;;-145.06;0.00;60892.56;5942267;23;20005;-92
2022/06/16 04:30:05;;;;;;;0.43;0.40;;;;;;;-145.06;0.00;60892.56;5942565;23;20013;-93
2022/06/16 04:32:49;;;;;;;0.70;0.60;;;;;;;-145.06;0.00;60892.56;5942283;23;20025;-92
2022/06/16 04:35:38;;;;;;;;;;;;;;;;;;;;;
2022/06/16 04:38:20;;;;;;;1.30;0.60;;;;;;;-145.06;0.00;60892.56;5952377;23;20562;-92
2022/06/16 04:40:59;;;;;;;0.90;0.50;;;;;;;-145.06;0.00;60892.56;5952762;23;20009;-92
2022/06/16 04:43:40;;;;;;;0.83;0.50;;;;;;;-145.06;0.00;60892.56;5941974;23;20013;-92
2022/06/16 04:46:35;;;;;;;1.10;0.70;;;;;;;-145.06;0.00;60892.56;5941806;23;20013;-92
2022/06/16 04:49:48;;;;;;;0.80;0.60;;;;;;;16.85;0.00;60892.56;5942120;23;20428;-90
2022/06/16 04:52:35;;;;;;;1.38;0.60;;;;;;;-145.06;0.00;60892.56;5941697;23;20077;-92
2022/06/16 04:55:28;;;;;;;;;;;;;;;;;;;;;
2022/06/16 04:58:10;;;;;;;1.45;0.80;;;;;;;-145.06;0.00;60892.56;5953054;23;20009;-92
2022/06/16 05:00:50;;;;;;;0.85;0.55;;;;;;;-145.06;0.00;60892.56;5942267;23;20014;-91
2022/06/16 05:03:30;;;;;;;1.90;0.55;;;;;;;-145.06;0.00;60892.56;5941601;23;20013;-92
2022/06/16 05:06:08;;;;;;;0.90;0.60;;;;;;;-145.06;0.00;60892.56;5941418;23;20005;-94
2022/06/16 05:08:50;;;;;;;1.40;0.77;;;;;;;-145.06;0.00;60892.56;5941423;23;20005;-92
2022/06/16 05:11:29;;;;;;;2.83;0.75;;;;;;;-145.06;0.00;60892.56;5941693;23;20444;-95
2022/06/16 05:14:11;;;;;;;1.40;0.77;;;;;;;-145.06;0.00;60892.56;5943009;23;20014;-94
2022/06/16 05:16:51;;;;;;;2.50;0.70;;;;;;;-145.06;0.00;60892.56;5941434;23;20001;-94
2022/06/16 05:19:32;;;;;;;1.10;0.88;;;;;;;-145.06;0.00;60892.56;5941584;23;20013;-93
2022/06/16 05:22:12;;;;;;;1.45;0.95;;;;;;;-145.06;0.00;60892.56;5940976;23;20006;-94
2022/06/16 05:24:51;;;;;;;1.00;0.70;;;;;;;-145.06;0.00;60892.56;5941086;23;20010;-94
2022/06/16 05:27:29;;;;;;;0.98;0.88;;;;;;;-145.06;0.00;60892.56;5941463;23;20032;-93
2022/06/16 05:30:09;;;;;;;0.80;0.60;;;;;;;17.18;0.00;60892.56;5941419;23;20005;-92
2022/06/16 05:32:48;;;;;;;1.30;0.70;;;;;;;-145.06;0.00;60892.56;5941286;23;20426;-92
2022/06/16 05:35:30;;;;;;;0.83;0.60;;;;;;;-145.06;0.00;60892.56;5941355;23;20428;-94
2022/06/16 05:38:09;;;;;;;2.25;0.73;;;;;;;-145.06;0.00;60892.56;5941300;23;20013;-94
2022/06/16 05:41:13;;;;;;;1.73;0.73;;;;;;;-145.06;0.00;60892.56;5941286;23;20009;-93
2022/06/16 05:43:52;;;;;;;1.02;0.73;;;;;;;-145.06;0.00;60892.56;5941135;23;20013;-94
2022/06/16 05:46:31;;;;;;;0.80;0.60;;;;;;;-145.06;0.00;60892.56;5941347;23;20341;-93
2022/06/16 05:49:15;;;;;;;1.48;0.90;;;;;;;-145.06;0.00;60892.56;5940998;23;20010;-93
2022/06/16 05:51:54;;;;;;;1.52;0.80;;;;;;;-145.06;0.00;60892.56;5941310;23;19998;-92
2022/06/16 05:54:33;;;;;;;1.92;0.82;;;;;;;-145.06;0.00;60892.56;5941454;23;20309;-94
2022/06/16 05:57:12;;;;;;;0.73;0.57;;;;;;;-145.06;0.00;60892.56;5941545;23;20005;-92
2022/06/16 05:59:51;;;;;;;1.40;0.80;;;;;;;-145.06;0.00;60892.56;5941597;23;20010;-93
2022/06/16 06:02:30;;;;;;;1.03;0.50;;;;;;;-145.06;0.00;60892.56;5941803;23;19998;-92
2022/06/16 06:05:11;;;;;;;3.45;0.60;;;;;;;-145.06;0.00;60892.56;5941119;23;20246;-94
2022/06/16 06:16:50;;;;;;;1.35;0.70;;;;;;;-145.06;0.00;60892.56;5951929;23;20010;-92
2022/06/16 06:19:31;;;;;;;1.33;0.55;;;;;;;-145.06;0.00;60892.56;5952524;23;20010;-91
2022/06/16 06:22:18;;;;;;;1.23;0.70;;;;;;;-145.06;0.00;60892.56;5941779;23;20005;-93
2022/06/16 06:25:01;;;;;;;0.70;0.50;;;;;;;-145.06;0.00;60892.56;5942194;23;20076;-92
2022/06/16 06:27:49;;;;;;;1.30;0.77;;;;;;;-145.06;0.00;60892.56;5962260;23;20018;-92
2022/06/16 06:30:30;;;;;;;1.52;0.68;;;;;;;187.52;0.00;60892.56;5918264;23;20074;-93
2022/06/16 06:33:09;;;;;;;1.00;0.60;;;;;;;-145.06;0.00;60892.56;5885544;23;20010;-93
2022/06/16 06:35:50;;;;;;;0.95;0.60;;;;;;;-145.06;0.00;60892.56;5858750;23;20007;-92
2022/06/16 06:38:34;;;;;;;1.05;0.45;;;;;;;-145.06;0.00;60892.56;5858977;23;20082;-92
2022/06/16 06:41:14;;;;;;;0.82;0.60;;;;;;;-145.06;0.00;60892.56;5858158;23;20003;-91
2022/06/16 06:44:23;;;;;;;1.75;0.73;;;;;;;-145.06;0.00;60892.56;5858543;23;20038;-91
2022/06/16 06:47:08;;;;;;;0.90;0.70;;;;;;;-145.06;0.00;60892.56;5858647;23;20030;-93
2022/06/16 06:49:48;;;;;;;1.27;0.80;;;;;;;-145.06;0.00;60892.56;5858632;23;20006;-93
2022/06/16 06:52:33;;;;;;;2.15;0.90;;;;;;;-145.06;0.00;60892.56;5858254;23;20014;-93
2022/06/16 06:55:21;;;;;;;1.80;0.68;;;;;;;-145.06;0.00;60892.56;5858389;23;20006;-93
2022/06/16 06:58:00;;;;;;;1.42;0.70;;;;;;;-145.06;0.00;60892.56;5858368;23;20441;-92
2022/06/16 07:00:40;;;;;;;1.30;0.85;;;;;;;-145.06;0.00;60892.56;5858205;23;20007;-93
2022/06/16 07:03:20;;;;;;;1.00;0.70;;;;;;;-145.06;0.00;60892.56;5857852;23;20007;-92
2022/06/16 07:06:02;;;;;;;0.65;0.50;;;;;;;21.08;0.00;60892.56;5858360;23;20086;-92
2022/06/16 07:08:41;;;;;;;1.00;0.50;;;;;;;-145.06;0.00;60892.56;5858634;23;20011;-90
2022/06/16 07:11:22;;;;;;;1.38;0.70;;;;;;;-145.06;0.00;60892.56;5857946;23;20018;-92
2022/06/16 07:14:04;;;;;;;0.63;0.50;;;;;;;-145.06;0.00;60892.56;5858367;23;20007;-93
2022/06/16 07:16:44;;;;;;;1.13;0.70;;;;;;;-145.06;0.00;60892.56;5858368;23;20007;-91
2022/06/16 07:19:23;;;;;;;0.68;0.60;;;;;;;-145.06;0.00;60892.56;5858116;23;20011;-92
2022/06/16 07:22:03;;;;;;;1.63;0.80;;;;;;;18.17;0.00;60892.56;5857650;23;20011;-92
2022/06/16 07:24:42;;;;;;;1.23;0.60;;;;;;;-145.06;0.00;60892.56;5857893;23;20082;-94
2022/06/16 07:27:25;;;;;;;1.58;0.70;;;;;;;-145.06;0.00;60892.56;5857419;23;20007;-93
2022/06/16 07:30:13;;;;;;;0.70;0.50;;;;;;;-145.06;0.00;60892.56;5857014;23;20307;-91
2022/06/16 07:32:52;;;;;;;1.35;0.80;;;;;;;-145.06;0.00;60892.56;5856945;23;20006;-92
2022/06/16 07:35:31;;;;;;;1.20;0.68;;;;;;;-145.06;0.00;60892.56;5856956;23;20006;-92
2022/06/16 07:38:13;;;;;;;1.47;0.47;;;;;;;-145.06;0.00;60892.56;5857726;23;20010;-92
2022/06/16 07:41:31;;;;;;;1.33;0.50;;;;;;;-145.06;0.00;60892.56;5857403;23;20267;-92
2022/06/16 07:43:53;;;;;;;0.95;0.52;;;;;;;-145.06;0.00;60892.56;5858527;23;20007;-93
2022/06/16 07:46:33;;;;;;;2.05;0.60;;;;;;;-145.06;0.00;60892.56;5856310;23;20177;-93
2022/06/16 07:49:19;;;;;;;1.77;0.60;;;;;;;-145.06;0.00;60892.56;5857789;23;20445;-92
2022/06/16 07:51:59;;;;;;;1.48;0.70;;;;;;;-145.06;0.00;60892.56;5857606;23;20006;-92
2022/06/16 08:09:39;;;;;;;1.92;0.73;;;;;;;-145.06;0.00;60892.56;5905871;23;20017;-93
2022/06/16 08:12:19;;;;;;;1.45;0.60;;;;;;;-145.06;0.00;60892.56;5943310;23;20005;-93
2022/06/16 08:15:06;;;;;;;0.68;0.47;;;;;;;-145.06;0.00;60892.56;5942712;23;20009;-93
2022/06/16 09:23:59;;;;;;;1.00;0.50;;;;;;;-145.06;0.00;60892.56;5927820;23;20017;-93
2022/06/16 09:27:00;;;;;;;0.90;0.70;;;;;;;-145.06;0.00;60892.56;5951526;23;20006;-94
2022/06/16 09:29:58;;;;;;;0.63;0.43;;;;;;;-145.06;0.00;60892.56;5941247;23;20006;-95
2022/06/16 09:32:47;;;;;;;1.45;0.60;;;;;;;23.67;0.00;60892.56;5958065;23;19997;-92
2022/06/16 09:35:48;;;;;;;0.73;0.52;;;;;;;-145.06;0.00;60892.56;5961012;23;20021;-95
2022/06/16 09:38:41;;;;;;;0.95;0.73;;;;;;;-145.06;0.00;60892.56;5939448;23;20085;-94
2022/06/16 09:44:35;;;;;;;4.70;2.33;;;;;;;-145.06;0.00;60892.56;5949888;23;20013;-93
2022/06/16 09:47:31;;;;;;;2.95;1.60;;;;;;;-145.06;0.00;60892.56;5937703;23;20013;-95
2022/06/16 09:50:26;;;;;;;2.35;1.33;;;;;;;-145.06;0.00;60892.56;5938884;23;20013;-93
2022/06/16 09:53:14;;;;;;;2.17;1.38;;;;;;;-145.06;0.00;60892.56;5938577;23;20005;-94
2022/06/16 09:56:09;;;;;;;4.10;2.50;;;;;;;23.67;0.00;60892.56;5940007;23;20017;-94
2022/06/16 09:58:59;;;;;;;2.92;1.80;;;;;;;-145.06;0.00;60892.56;5938620;23;20010;-94
2022/06/16 10:02:06;;;;;;;2.47;1.70;;;;;;;-145.06;0.00;60892.56;5938310;23;20005;-94
2022/06/16 10:04:50;;;;;;;1.15;0.93;;;;;;;-145.06;0.00;60892.56;5903087;23;20006;-94
2022/06/16 10:07:44;;;;;;;1.70;0.90;;;;;;;-145.06;0.00;60892.56;5938760;23;20380;-95
2022/06/16 10:10:56;;;;;;;0.90;0.60;;;;;;;-145.06;0.00;60892.56;5940753;23;20037;-94
2022/06/16 10:14:02;;;;;;;;;;;;;;;;;;;;;
2022/06/16 10:17:04;;;;;;;1.15;0.50;;;;;;;-145.06;0.00;60892.56;5950955;23;20463;-95
2022/06/16 10:19:50;;;;;;;0.70;0.30;;;;;;;-145.06;0.00;60892.56;5940873;23;20088;-93
2022/06/16 10:26:37;;;;;;;0.63;0.30;;;;;;;-145.06;0.00;60892.56;5941394;23;20021;-94
2022/06/16 10:34:05;;;;;;;1.00;0.25;;;;;;;-145.06;0.00;60892.56;5911107;23;20013;-95
2022/06/16 10:37:26;;;;;;;0.20;0.20;;;;;;;-145.06;0.00;60892.56;5941136;23;20009;-95
2022/06/16 10:40:49;;;;;;;0.30;0.28;;;;;;;-145.06;0.00;60892.56;5937772;23;20317;-96
2022/06/16 10:44:06;;;;;;;0.70;0.30;;;;;;;-145.06;0.00;60892.56;5939738;23;20006;-94
2022/06/16 10:50:39;;;;;;;0.10;0.10;;;;;;;26.27;0.00;60892.56;5940264;23;20010;-95
2022/06/16 10:53:55;;;;;;;0.22;0.20;;;;;;;-145.06;0.00;60892.56;5938953;23;20010;-95
2022/06/16 10:57:41;;;;;;;0.35;0.10;;;;;;;-145.06;0.00;60892.56;5941148;23;20546;-95
2022/06/16 11:01:15;;;;;;;0.30;0.20;;;;;;;-145.06;0.00;60892.56;5861169;23;20011;-94
2022/06/16 11:04:58;;;;;;;;;;;;;;;;;;;;;
2022/06/16 11:43:06;;;;;;;0.28;0.20;;;;;;;-145.06;0.00;60892.56;5867315;23;20019;-92
2022/06/16 11:45:54;;;;;;;2.90;0.47;;;;;;;-145.06;0.00;60892.56;5888398;23;20021;-92
2022/06/16 11:48:46;;;;;;;0.20;0.20;;;;;;;-145.06;0.00;60892.56;5912665;23;20401;-93
2022/06/16 11:51:47;;;;;;;0.88;0.22;;;;;;;-145.06;0.00;60892.56;5911342;23;20009;-93
2022/06/16 11:58:23;;;;;;;0.30;0.20;;;;;;;-145.06;0.00;60892.56;5926370;23;20009;-95
2022/06/16 12:05:24;;;;;;;0.35;0.20;;;;;;;-145.06;0.00;60892.56;5814350;23;20031;-94
2022/06/16 14:53:41;;;;;;;0.30;0.20;;;;;;;-145.06;0.00;60892.56;5897350;23;20029;-93
2022/06/16 15:45:09;;;;;;;0.82;0.28;;;;;;;-145.06;0.00;60892.56;5939116;23;20029;-92
2022/06/16 15:56:20;;;;;;;0.40;0.30;;;;;;;-145.06;0.00;60892.56;5921296;23;20341;-91
2022/06/16 15:59:17;;;;;;;0.20;0.20;;;;;;;-145.06;0.00;60892.56;5924132;23;20324;-90
2022/06/16 16:02:02;;;;;;;2.50;0.20;;;;;;;-145.06;0.00;60892.56;5943036;23;20207;-93
2022/06/16 16:04:41;;;;;;;0.40;0.30;;;;;;;-145.06;0.00;60892.56;5941605;23;20009;-90
2022/06/16 16:07:21;;;;;;;0.50;0.20;;;;;;;-145.06;0.00;60892.56;5937441;23;20013;-90
2022/06/16 16:10:03;;;;;;;0.63;0.30;;;;;;;-145.06;0.00;60892.56;5947957;23;20446;-90
2022/06/16 16:12:58;;;;;;;0.30;0.22;;;;;;;-145.06;0.00;60892.56;5934817;23;20009;-89
2022/06/16 16:15:41;;;;;;;0.50;0.30;;;;;;;-145.06;0.00;60892.56;5931042;23;20014;-88
2022/06/16 16:18:25;;;;;;;0.45;0.30;;;;;;;-145.06;0.00;60892.56;5931708;23;20009;-88
2022/06/16 17:47:12;;;;;;;0.20;0.20;;;;;;;-145.06;0.00;60892.56;5926935;23;20152;-89
2022/06/16 17:49:51;;;;;;;;;;;;;;;-145.06;0.00;60892.56;5933959;23;20447;-89
2022/06/16 18:01:39;;;;;;;0.40;0.30;;;;;;;26.20;0.00;60892.56;5883185;23;20492;-89
2022/06/16 18:04:18;;;;;;;0.30;0.25;;;;;;;-145.06;0.00;60892.56;5851912;23;20014;-89
2022/06/16 18:06:59;;;;;;;0.20;0.20;;;;;;;-145.06;0.00;60892.56;5921079;23;20336;-89
2022/06/16 18:10:28;;;;;;;0.40;0.20;;;;;;;-145.06;0.00;60892.56;5913327;23;20014;-92
